createdAt,value
2019-02-14T00:02:04.058Z,6.83
2019-02-14T00:07:08.089Z,6.87
2019-02-14T00:12:12.110Z,7.01
2019-02-14T00:17:16.408Z,6.94
2019-02-14T00:22:20.429Z,6.96
2019-02-14T00:27:30.447Z,6.96
2019-02-14T00:32:34.491Z,6.87
2019-02-14T00:37:38.519Z,6.94
2019-02-14T00:42:42.541Z,6.99
2019-02-14T00:47:46.560Z,6.88
2019-02-14T00:52:50.596Z,6.95
2019-02-14T00:57:54.629Z,6.91
2019-02-14T01:02:58.664Z,6.93
2019-02-14T01:08:02.687Z,6.95
2019-02-14T01:13:06.707Z,6.91
2019-02-14T01:18:10.727Z,6.94
2019-02-14T01:23:14.754Z,6.90
2019-02-14T01:28:18.758Z,6.86
2019-02-14T01:33:22.775Z,6.86
2019-02-14T01:38:26.806Z,6.87
2019-02-14T01:43:30.861Z,6.82
2019-02-14T01:48:34.860Z,6.75
2019-02-14T01:53:38.884Z,6.85
2019-02-14T01:58:42.891Z,6.85
2019-02-14T02:03:46.885Z,6.86
2019-02-14T02:08:50.894Z,6.84
2019-02-14T02:13:54.915Z,6.82
2019-02-14T02:18:58.926Z,6.88
2019-02-14T02:24:02.929Z,6.91
2019-02-14T02:29:06.936Z,6.87
2019-02-14T02:34:10.954Z,6.87
2019-02-14T02:39:14.978Z,6.91
2019-02-14T02:44:27.536Z,6.91
2019-02-14T02:49:42.667Z,6.87
2019-02-14T02:54:46.805Z,6.95
2019-02-14T02:59:50.816Z,6.98
2019-02-14T03:04:55.017Z,6.91
2019-02-14T03:09:59.104Z,7.00
2019-02-14T03:15:03.421Z,6.97
2019-02-14T03:20:09.064Z,6.98
2019-02-14T03:25:15.344Z,6.99
2019-02-14T03:30:19.364Z,6.91
2019-02-14T03:35:23.363Z,7.01
2019-02-14T03:40:27.389Z,6.98
2019-02-14T03:45:31.430Z,6.85
2019-02-14T03:50:35.818Z,6.82
2019-02-14T03:55:39.870Z,6.77
2019-02-14T04:00:43.859Z,6.78
2019-02-14T04:05:47.861Z,6.70
2019-02-14T04:10:51.874Z,6.67
2019-02-14T04:15:55.932Z,6.73
2019-02-14T04:20:59.940Z,6.62
2019-02-14T04:26:03.951Z,6.68
2019-02-14T04:31:08.001Z,6.65
2019-02-14T04:36:12.025Z,6.73
2019-02-14T04:41:16.040Z,6.73
2019-02-14T04:46:20.047Z,6.72
2019-02-14T04:51:24.064Z,6.76
2019-02-14T04:56:28.231Z,6.65
2019-02-14T05:01:32.338Z,6.76
2019-02-14T05:06:44.059Z,6.78
2019-02-14T05:11:42.094Z,6.81
2019-02-14T05:16:46.125Z,6.85
2019-02-14T05:21:50.137Z,6.84
2019-02-14T05:26:54.162Z,6.93
2019-02-14T05:31:58.192Z,6.91
2019-02-14T05:37:02.239Z,6.85
2019-02-14T05:42:06.248Z,6.87
2019-02-14T05:47:10.268Z,6.99
2019-02-14T05:52:14.286Z,6.93
2019-02-14T05:57:28.605Z,6.92
2019-02-14T06:02:32.602Z,7.06
2019-02-14T06:07:36.634Z,6.92
2019-02-14T06:12:40.668Z,6.98
2019-02-14T06:17:44.701Z,6.82
2019-02-14T06:22:48.709Z,6.81
2019-02-14T06:27:52.731Z,6.68
2019-02-14T06:32:56.763Z,6.88
2019-02-14T06:38:00.842Z,6.90
2019-02-14T06:43:04.867Z,6.87
2019-02-14T06:48:08.947Z,6.91
2019-02-14T06:53:12.961Z,6.87
2019-02-14T06:58:16.979Z,7.00
2019-02-14T07:03:21.093Z,7.03
2019-02-14T07:08:25.106Z,7.07
2019-02-14T07:13:29.197Z,7.06
2019-02-14T07:18:33.255Z,7.01
2019-02-14T07:23:38.076Z,7.00
2019-02-14T07:28:42.129Z,7.11
2019-02-14T07:33:46.253Z,7.13
2019-02-14T07:38:50.372Z,7.18
2019-02-14T07:43:54.432Z,7.37
2019-02-14T07:48:58.709Z,7.20
2019-02-14T07:54:02.824Z,7.25
2019-02-14T07:59:06.864Z,7.26
2019-02-14T08:04:10.915Z,7.39
2019-02-14T08:09:14.986Z,7.43
2019-02-14T08:14:19.111Z,7.32
2019-02-14T08:19:23.147Z,7.42
2019-02-14T08:24:27.179Z,7.39
2019-02-14T08:29:31.262Z,7.54
2019-02-14T08:34:35.312Z,7.68
2019-02-14T08:39:39.351Z,7.65
2019-02-14T08:44:43.359Z,7.67
2019-02-14T08:49:47.500Z,7.66
2019-02-14T08:54:51.514Z,7.74
2019-02-14T08:59:55.523Z,7.77
2019-02-14T09:04:59.539Z,7.87
2019-02-14T09:10:03.579Z,7.74
2019-02-14T09:15:08.413Z,7.89
2019-02-14T09:20:13.267Z,8.06
2019-02-14T09:25:17.282Z,8.00
2019-02-14T09:30:21.303Z,8.22
2019-02-14T09:35:27.143Z,8.19
2019-02-14T09:40:31.070Z,8.10
2019-02-14T09:45:35.085Z,8.47
2019-02-14T09:50:40.183Z,8.44
2019-02-14T09:55:44.236Z,8.49
2019-02-14T10:00:48.247Z,8.30
2019-02-14T10:05:52.272Z,8.15
2019-02-14T10:10:56.315Z,8.55
2019-02-14T10:16:00.328Z,8.92
2019-02-14T10:21:04.362Z,8.87
2019-02-14T10:26:08.393Z,9.24
2019-02-14T10:31:12.416Z,9.55
2019-02-14T10:36:16.467Z,8.75
2019-02-14T10:41:20.506Z,9.21
2019-02-14T10:46:24.482Z,9.25
2019-02-14T10:51:28.494Z,9.96
2019-02-14T10:56:32.512Z,9.84
2019-02-14T11:01:36.524Z,10.30
2019-02-14T11:06:40.554Z,10.73
2019-02-14T11:11:44.661Z,10.89
2019-02-14T11:16:48.649Z,10.14
2019-02-14T11:21:52.662Z,10.58
2019-02-14T11:26:56.707Z,13.74
2019-02-14T11:32:00.821Z,14.28
2019-02-14T11:37:04.832Z,11.65
2019-02-14T11:42:08.879Z,12.95
2019-02-14T11:47:12.895Z,13.89
2019-02-14T11:52:16.918Z,15.67
2019-02-14T11:57:20.942Z,14.96
2019-02-14T12:02:24.963Z,13.54
2019-02-14T12:07:28.990Z,13.00
2019-02-14T12:12:33.044Z,13.29
2019-02-14T12:17:37.060Z,13.71
2019-02-14T12:22:46.833Z,14.04
2019-02-14T12:27:46.810Z,14.75
2019-02-14T12:32:50.842Z,16.07
2019-02-14T12:37:54.975Z,16.92
2019-02-14T12:42:58.997Z,16.84
2019-02-14T12:48:03.028Z,15.22
2019-02-14T12:53:07.060Z,15.75
2019-02-14T12:58:11.098Z,18.10
2019-02-14T13:03:15.468Z,14.51
2019-02-14T13:08:19.533Z,16.14
2019-02-14T13:13:23.596Z,17.40
2019-02-14T13:18:27.645Z,16.21
2019-02-14T13:23:31.664Z,15.64
2019-02-14T13:28:35.681Z,13.87
2019-02-14T13:33:39.706Z,12.48
2019-02-14T13:38:43.783Z,12.04
2019-02-14T13:43:47.816Z,11.92
2019-02-14T13:48:51.844Z,11.33
2019-02-14T13:53:55.871Z,11.24
2019-02-14T13:58:59.980Z,11.23
2019-02-14T14:04:04.014Z,11.40
2019-02-14T14:09:10.024Z,11.30
2019-02-14T14:14:14.067Z,11.28
2019-02-14T14:19:18.105Z,11.25
2019-02-14T14:24:23.015Z,11.18
2019-02-14T14:29:27.507Z,10.97
2019-02-14T14:34:31.744Z,11.03
2019-02-14T14:39:35.760Z,11.03
2019-02-14T14:44:43.438Z,10.82
2019-02-14T14:49:47.452Z,10.80
2019-02-14T14:54:51.511Z,10.77
2019-02-14T14:59:55.899Z,10.83
2019-02-14T15:05:00.435Z,10.54
2019-02-14T15:10:04.797Z,10.69
2019-02-14T15:15:09.008Z,10.59
2019-02-14T15:20:13.556Z,10.56
2019-02-14T15:25:17.598Z,10.36
2019-02-14T15:30:21.662Z,10.41
2019-02-14T15:35:25.720Z,10.38
2019-02-14T15:40:29.750Z,10.32
2019-02-14T15:45:33.787Z,10.25
2019-02-14T15:50:37.847Z,10.26
2019-02-14T15:55:43.805Z,10.18
2019-02-14T16:00:50.009Z,10.00
2019-02-14T16:05:53.690Z,9.86
2019-02-14T16:10:57.943Z,9.81
2019-02-14T16:16:01.956Z,9.79
2019-02-14T16:21:07.822Z,9.68
2019-02-14T16:26:13.079Z,9.59
2019-02-14T16:31:17.503Z,9.59
2019-02-14T16:36:22.839Z,9.43
2019-02-14T16:41:27.042Z,9.35
2019-02-14T16:46:31.075Z,9.26
2019-02-14T16:51:35.139Z,9.24
2019-02-14T16:56:39.144Z,9.23
2019-02-14T17:01:43.165Z,9.21
2019-02-14T17:06:47.204Z,9.12
2019-02-14T17:11:51.264Z,9.12
2019-02-14T17:16:55.303Z,8.98
2019-02-14T17:21:59.334Z,8.91
2019-02-14T17:27:03.524Z,8.86
2019-02-14T17:32:07.552Z,8.78
2019-02-14T17:37:11.697Z,8.74
2019-02-14T17:42:15.712Z,8.70
2019-02-14T17:47:19.737Z,8.55
2019-02-14T17:52:23.775Z,8.64
2019-02-14T17:57:27.773Z,8.58
2019-02-14T18:02:31.800Z,8.49
2019-02-14T18:07:35.853Z,8.41
2019-02-14T18:12:39.899Z,8.41
2019-02-14T18:17:43.949Z,8.35
2019-02-14T18:22:47.958Z,8.30
2019-02-14T18:27:52.071Z,8.31
2019-02-14T18:32:56.104Z,8.25
2019-02-14T18:38:00.147Z,8.26
2019-02-14T18:43:04.211Z,8.21
2019-02-14T18:48:08.229Z,8.17
2019-02-14T18:53:12.330Z,8.18
2019-02-14T18:58:25.827Z,8.18
2019-02-14T19:03:22.473Z,8.15
2019-02-14T19:08:26.518Z,8.06
2019-02-14T19:13:30.562Z,7.98
2019-02-14T19:18:34.612Z,7.91
2019-02-14T19:23:38.653Z,7.92
2019-02-14T19:28:42.718Z,7.93
2019-02-14T19:33:46.779Z,7.82
2019-02-14T19:38:50.854Z,7.72
2019-02-14T19:43:54.933Z,7.73
2019-02-14T19:48:59.053Z,7.74
2019-02-14T19:54:03.214Z,7.64
2019-02-14T19:59:07.392Z,7.57
2019-02-14T20:04:11.490Z,7.63
2019-02-14T20:09:15.740Z,7.66
2019-02-14T20:14:20.617Z,7.62
2019-02-14T20:19:24.714Z,7.48
2019-02-14T20:24:28.951Z,7.43
2019-02-14T20:29:33.046Z,7.40
2019-02-14T20:34:37.163Z,7.37
2019-02-14T20:39:41.725Z,7.31
2019-02-14T20:44:45.781Z,7.34
2019-02-14T20:49:49.882Z,7.30
2019-02-14T20:54:53.998Z,7.30
2019-02-14T20:59:58.081Z,7.27
2019-02-14T21:05:02.143Z,7.17
2019-02-14T21:10:06.208Z,7.11
2019-02-14T21:15:10.271Z,7.08
2019-02-14T21:20:14.364Z,7.04
2019-02-14T21:25:32.693Z,6.98
2019-02-14T21:30:36.707Z,6.98
2019-02-14T21:35:40.750Z,6.91
2019-02-14T21:40:44.789Z,6.90
2019-02-14T21:45:48.818Z,6.84
2019-02-14T21:50:53.853Z,6.80
2019-02-14T21:55:57.866Z,6.79
2019-02-14T22:01:01.948Z,6.72
2019-02-14T22:06:05.968Z,6.70
2019-02-14T22:11:10.032Z,6.70
2019-02-14T22:16:14.051Z,6.64
2019-02-14T22:21:18.060Z,6.67
2019-02-14T22:26:22.108Z,6.63
2019-02-14T22:31:26.118Z,6.55
2019-02-14T22:36:30.144Z,6.49
2019-02-14T22:41:34.175Z,6.51
2019-02-14T22:46:38.210Z,6.45
2019-02-14T22:51:42.238Z,6.50
2019-02-14T22:56:46.247Z,6.57
2019-02-14T23:01:50.261Z,6.45
2019-02-14T23:06:54.290Z,6.42
2019-02-14T23:11:58.305Z,6.44
2019-02-14T23:17:02.332Z,6.40
2019-02-14T23:22:06.404Z,6.42
2019-02-14T23:27:10.438Z,6.37
2019-02-14T23:32:14.448Z,6.38
2019-02-14T23:37:18.499Z,6.31
2019-02-14T23:42:22.524Z,6.33
2019-02-14T23:47:26.542Z,6.30
2019-02-14T23:52:30.567Z,6.22
2019-02-14T23:57:34.586Z,6.18
